Time;durP1;ratioP1;P1;durP2;ratioP2;P2;SDS_P1;SDS_P2;PMS_P1;PMS_P2;Temp;Humidity;BMP_temperature;BMP_pressure;BME280_temperature;BME280_humidity;BME280_pressure;Samples;Min_cycle;Max_cycle;Signal;HPM_P1;HPM_P2
2021/12/09 15:08:21;;;;;;;460.88;111.15;;;6.00;99.90;;;;;;6160334;23;20057;-95
2021/12/09 15:10:54;;;;;;;408.02;76.43;;;6.00;99.90;;;;;;6110030;23;20009;-95
2021/12/09 15:13:25;;;;;;;465.05;85.70;;;5.90;99.90;;;;;;6111415;23;20020;-95
2021/12/09 15:16:42;;;;;;;629.00;92.47;;;6.00;99.90;;;;;;6158297;23;20005;-96
2021/12/09 15:19:28;;;;;;;432.48;66.80;;;5.80;99.90;;;;;;6133486;23;19994;-96
2021/12/09 15:24:29;;;;;;;464.38;66.85;;;5.90;99.90;;;;;;6160732;23;20018;-94
2021/12/09 15:43:15;;;;;;;518.13;69.55;;;5.80;99.90;;;;;;6151489;23;20045;-95
2021/12/09 15:46:05;;;;;;;419.52;59.88;;;5.80;99.90;;;;;;6108862;23;20053;-93
2021/12/09 15:48:41;;;;;;;466.67;66.60;;;5.80;99.90;;;;;;6148434;23;20021;-94
2021/12/09 15:51:11;;;;;;;371.05;57.70;;;5.80;99.90;;;;;;6156554;23;19989;-92
2021/12/09 15:54:02;;;;;;;281.60;55.63;;;5.80;99.90;;;;;;6157222;23;20322;-95
2021/12/09 15:56:34;;;;;;;375.88;62.65;;;5.80;99.90;;;;;;6155627;23;20041;-93
2021/12/09 15:59:08;;;;;;;396.55;58.42;;;5.80;99.90;;;;;;6182154;23;20018;-95
2021/12/09 16:01:37;;;;;;;373.98;58.15;;;5.90;99.90;;;;;;6155958;23;20014;-93
2021/12/09 16:04:08;;;;;;;430.98;61.80;;;5.90;99.90;;;;;;6152296;23;20030;-93
2021/12/09 16:06:34;;;;;;;285.65;52.60;;;5.90;99.90;;;;;;6149985;23;20017;-93
2021/12/09 16:09:12;;;;;;;420.95;56.65;;;5.90;99.90;;;;;;6149196;23;20021;-94
2021/12/09 16:28:41;;;;;;;310.25;51.97;;;5.90;99.90;;;;;;6157381;22;20052;-95
2021/12/09 16:31:14;;;;;;;326.45;49.17;;;5.90;99.90;;;;;;6213230;23;20005;-95
2021/12/09 16:46:57;;;;;;;439.38;54.88;;;5.90;99.90;;;;;;6171761;22;20006;-95
2021/12/09 16:49:24;;;;;;;357.05;48.53;;;6.00;99.90;;;;;;6157004;23;19982;-94
2021/12/09 16:52:09;;;;;;;349.40;48.42;;;5.90;99.90;;;;;;6157890;23;19990;-93
2021/12/09 16:59:44;;;;;;;331.52;49.42;;;5.90;99.90;;;;;;6122011;23;20054;-94
2021/12/09 17:10:00;;;;;;;380.02;52.85;;;5.90;99.90;;;;;;6153571;22;20028;-94
2021/12/09 17:12:29;;;;;;;305.13;47.60;;;5.90;99.90;;;;;;6211625;23;20043;-95
2021/12/09 17:15:16;;;;;;;292.42;50.05;;;5.90;99.90;;;;;;6185023;23;20001;-93
2021/12/09 17:17:45;;;;;;;495.52;59.47;;;5.90;99.90;;;;;;6211189;23;20003;-95
2021/12/09 17:20:26;;;;;;;511.77;63.50;;;5.90;99.90;;;;;;6185319;22;20012;-94
2021/12/09 17:22:58;;;;;;;461.02;64.68;;;5.90;99.90;;;;;;6181589;23;20032;-95
2021/12/09 17:25:24;;;;;;;401.25;58.30;;;5.90;99.90;;;;;;6153025;23;20013;-91
2021/12/09 17:27:54;;;;;;;483.27;59.63;;;5.90;99.90;;;;;;6175987;23;20052;-94
2021/12/09 17:30:23;;;;;;;566.47;68.65;;;6.00;99.90;;;;;;6174315;23;20040;-93
2021/12/09 17:33:11;;;;;;;499.27;67.03;;;6.00;99.90;;;;;;6162315;23;20065;-93
2021/12/09 17:35:37;;;;;;;622.72;80.50;;;6.00;99.90;;;;;;6183816;23;20008;-92
2021/12/09 17:38:04;;;;;;;434.45;65.38;;;6.00;99.90;;;;;;6179880;23;20024;-92
2021/12/09 17:43:37;;;;;;;508.42;61.53;;;6.00;99.90;;;;;;6153861;22;20005;-93
2021/12/09 17:46:11;;;;;;;388.53;54.83;;;6.00;99.90;;;;;;6177168;23;20004;-95
2021/12/09 17:48:58;;;;;;;386.92;53.33;;;6.00;99.90;;;;;;6209869;23;20016;-96
2021/12/09 17:51:25;;;;;;;452.65;56.75;;;6.00;99.90;;;;;;6186910;23;20013;-93
2021/12/09 17:54:07;;;;;;;383.90;51.92;;;6.00;99.90;;;;;;6180258;23;20024;-93
2021/12/09 17:56:35;;;;;;;408.83;56.17;;;6.00;99.90;;;;;;6199543;23;20005;-94
2021/12/09 17:59:03;;;;;;;434.13;60.85;;;6.00;99.90;;;;;;6201538;23;20009;-94
2021/12/09 18:01:29;;;;;;;277.30;47.00;;;6.10;99.90;;;;;;6179868;23;20001;-91
2021/12/09 18:03:54;;;;;;;354.77;53.25;;;6.10;99.90;;;;;;6194086;23;20004;-93
2021/12/09 18:06:20;;;;;;;548.88;66.93;;;6.10;99.90;;;;;;6196984;23;20001;-92
2021/12/09 18:08:46;;;;;;;462.63;63.95;;;6.20;99.90;;;;;;6198298;23;20001;-94
2021/12/09 18:11:30;;;;;;;375.58;55.60;;;6.10;99.90;;;;;;6200667;23;19998;-94
2021/12/09 18:14:03;;;;;;;381.42;53.28;;;6.10;99.90;;;;;;6182025;23;20009;-93
2021/12/09 18:16:36;;;;;;;394.40;60.13;;;6.20;99.90;;;;;;6197738;23;20005;-92
2021/12/09 18:19:01;;;;;;;466.70;61.72;;;6.20;99.90;;;;;;6203664;23;20005;-93
2021/12/09 18:21:28;;;;;;;522.40;66.43;;;6.10;99.90;;;;;;6202774;23;20001;-93
2021/12/09 18:23:53;;;;;;;455.38;64.40;;;6.20;99.90;;;;;;6198116;23;20008;-92
2021/12/09 18:26:19;;;;;;;343.38;56.63;;;6.20;99.90;;;;;;6198491;23;20009;-92
2021/12/09 18:28:45;;;;;;;371.23;57.95;;;6.20;99.90;;;;;;6197268;23;20009;-92
2021/12/09 18:31:11;;;;;;;432.48;53.92;;;6.20;99.90;;;;;;6198725;23;20451;-93
2021/12/09 18:33:38;;;;;;;442.75;64.18;;;6.30;99.90;;;;;;6150898;23;20372;-93
2021/12/09 18:36:12;;;;;;;397.52;58.83;;;6.30;99.90;;;;;;6199510;23;20008;-94
2021/12/09 18:38:38;;;;;;;326.80;48.75;;;6.30;99.90;;;;;;6203409;23;20008;-92
2021/12/09 18:41:04;;;;;;;260.67;44.85;;;6.30;99.90;;;;;;6199284;23;20036;-94
2021/12/09 18:43:34;;;;;;;317.75;50.55;;;6.30;99.90;;;;;;6202478;23;20001;-94
2021/12/09 18:46:03;;;;;;;279.50;47.08;;;6.30;99.90;;;;;;6201959;23;20021;-94
2021/12/09 18:48:32;;;;;;;249.73;46.28;;;6.30;99.90;;;;;;6202921;23;20036;-93
2021/12/09 18:50:59;;;;;;;235.55;45.20;;;6.30;99.90;;;;;;6173584;23;20005;-91
2021/12/09 18:53:29;;;;;;;256.05;47.15;;;6.30;99.90;;;;;;6155790;23;20421;-94
2021/12/09 18:55:56;;;;;;;276.20;48.90;;;6.30;99.90;;;;;;6176952;23;20017;-94
2021/12/09 18:58:48;;;;;;;305.58;50.85;;;6.30;99.90;;;;;;6205119;23;20005;-93
2021/12/09 19:01:14;;;;;;;314.27;48.60;;;6.20;99.90;;;;;;6175290;23;20001;-93
2021/12/09 19:03:40;;;;;;;295.95;49.92;;;6.10;99.90;;;;;;6202386;23;20092;-93
2021/12/09 19:07:45;;;;;;;241.98;45.83;;;6.10;99.90;;;;;;5103304;27;20378;-93
2021/12/09 19:10:13;;;;;;;253.52;46.63;;;6.20;99.90;;;;;;5105309;28;20028;-94
2021/12/09 19:12:40;;;;;;;205.95;46.67;;;6.10;99.90;;;;;;5087618;28;20036;-94
2021/12/09 19:15:08;;;;;;;219.27;46.78;;;6.10;99.90;;;;;;5105541;28;20479;-93
2021/12/09 19:17:48;;;;;;;285.33;51.10;;;6.10;99.90;;;;;;5089553;28;20101;-92
2021/12/09 19:20:17;;;;;;;236.32;48.92;;;6.20;99.90;;;;;;5102435;28;20021;-90
2021/12/09 19:22:57;;;;;;;259.63;48.33;;;6.20;99.90;;;;;;5101017;28;20032;-92
2021/12/09 19:25:25;;;;;;;217.93;45.22;;;6.20;99.90;;;;;;5084537;28;20036;-92
2021/12/09 19:27:54;;;;;;;160.35;39.17;;;6.20;99.90;;;;;;5101090;28;20502;-94
2021/12/09 19:30:33;;;;;;;154.82;37.05;;;6.30;99.90;;;;;;5103092;28;20024;-92
2021/12/09 19:33:07;;;;;;;157.43;38.08;;;6.30;99.90;;;;;;5103315;28;20028;-94
2021/12/09 19:35:35;;;;;;;151.38;38.22;;;6.30;99.90;;;;;;5101177;28;20016;-93
2021/12/09 19:38:02;;;;;;;142.38;37.05;;;6.40;99.90;;;;;;5100352;28;20114;-92
2021/12/09 19:40:30;;;;;;;183.07;39.83;;;6.40;99.90;;;;;;5098296;28;20107;-94
2021/12/09 19:42:56;;;;;;;151.00;36.45;;;6.40;99.90;;;;;;5097819;28;20026;-94
2021/12/09 19:45:22;;;;;;;121.05;33.92;;;6.40;99.90;;;;;;5100833;28;20024;-92
2021/12/09 19:47:48;;;;;;;110.43;30.85;;;6.40;99.90;;;;;;5097904;28;20031;-94
2021/12/09 19:50:16;;;;;;;139.23;33.13;;;6.40;99.90;;;;;;5099427;28;20111;-92
2021/12/09 19:52:45;;;;;;;126.70;32.20;;;6.50;99.90;;;;;;5099226;28;20044;-92
2021/12/09 19:55:12;;;;;;;109.93;32.45;;;6.40;99.90;;;;;;5100208;28;20020;-92
2021/12/09 19:57:39;;;;;;;114.32;32.60;;;6.40;99.90;;;;;;5101122;28;20025;-92
2021/12/09 20:00:08;;;;;;;119.82;32.53;;;6.40;99.90;;;;;;5098077;28;20052;-93
2021/12/09 20:02:35;;;;;;;119.40;32.67;;;6.40;99.90;;;;;;5096647;28;20085;-90
2021/12/09 20:05:00;;;;;;;129.50;37.15;;;6.50;99.90;;;;;;5097615;28;20020;-91
2021/12/09 20:07:26;;;;;;;142.35;38.78;;;6.50;99.90;;;;;;5093142;28;20109;-94
2021/12/09 20:09:52;;;;;;;130.88;34.85;;;6.50;99.90;;;;;;5095112;28;20024;-93
2021/12/09 20:12:18;;;;;;;135.88;35.92;;;6.50;99.90;;;;;;5097772;28;20020;-92
2021/12/09 20:14:44;;;;;;;126.40;35.03;;;6.60;99.90;;;;;;5098195;28;20023;-93
2021/12/09 20:17:10;;;;;;;155.80;37.88;;;6.60;99.90;;;;;;5094554;28;20029;-93
2021/12/09 20:19:36;;;;;;;146.27;36.53;;;6.60;99.90;;;;;;5084608;28;20024;-93
2021/12/09 20:22:07;;;;;;;140.77;34.22;;;6.50;99.90;;;;;;5090276;28;20025;-92
2021/12/09 20:24:35;;;;;;;156.95;37.05;;;6.60;99.90;;;;;;5088868;28;20028;-93
2021/12/09 20:27:01;;;;;;;145.95;36.08;;;6.50;99.90;;;;;;5085685;28;20031;-93
2021/12/09 20:29:29;;;;;;;141.77;34.67;;;6.50;99.90;;;;;;5087108;28;20048;-93
2021/12/09 20:31:55;;;;;;;151.85;38.63;;;6.50;99.90;;;;;;5083657;28;20092;-92
2021/12/09 20:34:21;;;;;;;145.48;35.85;;;6.50;99.90;;;;;;5082544;28;20025;-92
2021/12/09 20:36:47;;;;;;;141.88;38.58;;;6.50;99.90;;;;;;5085626;28;20032;-92
2021/12/09 20:39:13;;;;;;;138.68;36.50;;;6.50;99.90;;;;;;5085523;28;20082;-92
2021/12/09 20:41:39;;;;;;;147.85;38.90;;;6.50;99.90;;;;;;5082452;28;20024;-92
2021/12/09 20:44:05;;;;;;;146.23;37.75;;;6.50;99.90;;;;;;5082776;28;20123;-91
2021/12/09 20:46:31;;;;;;;161.60;41.33;;;6.50;99.90;;;;;;5082780;28;20024;-92
2021/12/09 20:48:58;;;;;;;156.35;43.47;;;6.50;99.90;;;;;;5083048;28;20028;-93
2021/12/09 20:51:24;;;;;;;155.48;44.58;;;6.50;99.90;;;;;;5065858;28;20037;-93
2021/12/09 20:53:50;;;;;;;131.68;45.67;;;6.50;99.90;;;;;;5081314;28;20025;-92
2021/12/09 20:56:16;;;;;;;155.30;46.60;;;6.50;99.90;;;;;;5080575;28;20024;-93
2021/12/09 20:58:44;;;;;;;128.75;41.55;;;6.50;99.90;;;;;;5080639;28;20029;-93
2021/12/09 21:01:09;;;;;;;144.98;45.58;;;6.50;99.90;;;;;;5078745;28;20017;-93
2021/12/09 21:03:35;;;;;;;142.82;44.67;;;6.50;99.90;;;;;;5081606;28;20075;-92
2021/12/09 21:06:02;;;;;;;149.85;47.08;;;6.60;99.90;;;;;;5080334;28;20056;-93
2021/12/09 21:08:28;;;;;;;140.57;47.08;;;6.60;99.90;;;;;;5084583;28;20081;-94
2021/12/09 21:10:56;;;;;;;140.95;48.58;;;6.50;99.90;;;;;;5079097;28;20204;-92
2021/12/09 21:13:23;;;;;;;148.75;49.80;;;6.50;99.90;;;;;;5079310;28;20055;-92
2021/12/09 21:15:51;;;;;;;169.35;53.20;;;6.60;99.90;;;;;;5078871;28;20028;-93
2021/12/09 21:18:19;;;;;;;144.50;48.33;;;6.60;99.90;;;;;;5078418;28;20081;-94
2021/12/09 21:20:46;;;;;;;141.00;48.15;;;6.60;99.90;;;;;;5077928;28;20028;-93
2021/12/09 21:23:13;;;;;;;165.82;48.58;;;6.50;99.90;;;;;;5082069;28;20024;-93
2021/12/09 21:25:41;;;;;;;176.38;51.60;;;6.50;99.90;;;;;;5078664;28;20024;-93
2021/12/09 21:28:06;;;;;;;176.52;50.78;;;6.50;99.90;;;;;;5076367;28;20025;-93
2021/12/09 21:30:32;;;;;;;179.93;52.83;;;6.60;99.90;;;;;;5078685;28;20054;-94
2021/12/09 21:32:59;;;;;;;175.15;49.30;;;6.60;99.90;;;;;;5077970;28;20027;-93
2021/12/09 21:35:28;;;;;;;233.45;57.78;;;6.60;99.90;;;;;;5076958;28;20052;-93
2021/12/09 21:37:56;;;;;;;192.73;53.67;;;6.60;99.90;;;;;;5076387;28;20421;-94
2021/12/09 21:40:26;;;;;;;175.10;54.30;;;6.60;99.90;;;;;;5076883;28;20031;-93
2021/12/09 21:42:56;;;;;;;243.40;62.17;;;6.60;99.90;;;;;;5078683;28;20024;-92
2021/12/09 21:45:26;;;;;;;237.05;59.17;;;6.60;99.90;;;;;;5076274;28;20116;-94
2021/12/09 21:47:52;;;;;;;;;;;6.60;99.90;;;;;;5069401;28;20029;-93
2021/12/09 21:50:18;;;;;;;208.25;56.40;;;6.60;99.90;;;;;;5077648;28;19904;-93
2021/12/09 21:52:45;;;;;;;201.30;57.95;;;6.50;99.90;;;;;;5078185;28;20025;-94
2021/12/09 21:55:11;;;;;;;184.57;57.28;;;6.50;99.90;;;;;;5079441;28;20028;-94
2021/12/09 21:57:37;;;;;;;195.55;58.47;;;6.50;99.90;;;;;;5079930;28;20054;-94
2021/12/09 22:00:13;;;;;;;185.45;57.97;;;6.50;99.90;;;;;;5081623;28;20029;-95
2021/12/09 22:02:39;;;;;;;158.60;55.45;;;6.50;99.90;;;;;;5080728;28;20028;-93
2021/12/09 22:05:08;;;;;;;177.35;57.28;;;6.50;99.90;;;;;;5080961;28;20055;-94
2021/12/09 22:07:34;;;;;;;335.42;134.82;;;6.50;99.90;;;;;;5074467;28;20106;-95
2021/12/09 22:10:01;;;;;;;256.48;87.88;;;6.50;99.90;;;;;;5074752;28;20020;-93
2021/12/09 22:12:28;;;;;;;254.13;73.53;;;6.50;99.90;;;;;;5075195;28;20175;-92
2021/12/09 22:14:54;;;;;;;193.82;60.97;;;6.50;99.90;;;;;;5075253;28;20441;-94
2021/12/09 22:17:25;;;;;;;235.10;67.65;;;6.50;99.90;;;;;;5075974;28;20029;-91
2021/12/09 22:19:51;;;;;;;245.05;68.07;;;6.50;99.90;;;;;;5076839;28;20478;-92
2021/12/09 22:22:16;;;;;;;219.30;62.95;;;6.50;99.90;;;;;;5076265;28;20040;-92
2021/12/09 22:24:42;;;;;;;243.25;67.32;;;6.40;99.90;;;;;;5077700;28;20028;-92
2021/12/09 22:27:08;;;;;;;217.23;63.92;;;6.40;99.90;;;;;;5077233;28;20025;-92
2021/12/09 22:29:34;;;;;;;248.10;66.88;;;6.40;99.90;;;;;;5074868;28;20020;-93
2021/12/09 22:32:00;;;;;;;238.57;63.42;;;6.40;99.90;;;;;;5076575;28;20021;-92
2021/12/09 22:34:26;;;;;;;218.18;61.75;;;6.40;99.90;;;;;;5076087;28;20021;-93
2021/12/09 22:36:52;;;;;;;197.18;58.13;;;6.40;99.90;;;;;;5076290;28;20067;-93
2021/12/09 22:39:18;;;;;;;229.45;63.22;;;6.40;99.90;;;;;;5075799;28;20032;-93
2021/12/09 22:41:44;;;;;;;211.27;57.45;;;6.50;99.90;;;;;;5075096;28;20025;-93
2021/12/09 22:44:10;;;;;;;226.60;57.55;;;6.50;99.90;;;;;;5075451;28;20028;-93
2021/12/09 22:46:38;;;;;;;211.30;58.45;;;6.50;99.90;;;;;;5074852;28;20372;-92
2021/12/09 22:49:06;;;;;;;220.63;57.85;;;6.50;99.90;;;;;;5074850;28;20170;-92
2021/12/09 22:51:35;;;;;;;196.85;57.28;;;6.50;99.90;;;;;;5074477;28;20051;-93
2021/12/09 22:54:06;;;;;;;197.88;57.22;;;6.40;99.90;;;;;;5074922;28;20017;-92
2021/12/09 22:56:35;;;;;;;223.00;59.40;;;6.40;99.90;;;;;;5075704;28;20029;-93
2021/12/09 22:59:01;;;;;;;194.43;51.05;;;6.50;99.90;;;;;;5076197;28;20092;-92
2021/12/09 23:01:29;;;;;;;187.55;52.42;;;6.50;99.90;;;;;;5076084;28;20036;-91
2021/12/09 23:04:01;;;;;;;202.32;53.55;;;6.50;99.90;;;;;;5073825;28;20052;-93
2021/12/09 23:06:29;;;;;;;174.63;49.60;;;6.50;99.90;;;;;;5073908;28;20067;-92
2021/12/09 23:08:58;;;;;;;192.88;50.30;;;6.50;99.90;;;;;;5073832;28;20024;-93
2021/12/09 23:11:27;;;;;;;164.82;48.15;;;6.50;99.90;;;;;;5074430;28;20028;-92
2021/12/09 23:14:01;;;;;;;161.13;46.10;;;6.50;99.90;;;;;;5073611;28;20475;-92
2021/12/09 23:16:34;;;;;;;152.25;45.13;;;6.50;99.90;;;;;;5073745;28;20142;-92
2021/12/09 23:19:00;;;;;;;142.30;44.03;;;6.50;99.90;;;;;;5073537;28;20043;-93
2021/12/09 23:21:27;;;;;;;144.10;44.25;;;6.50;99.90;;;;;;5073614;28;20082;-93
2021/12/09 23:23:53;;;;;;;149.68;43.58;;;6.40;99.90;;;;;;5073613;28;20459;-93
2021/12/09 23:26:19;;;;;;;138.00;43.97;;;6.40;99.90;;;;;;5073017;28;20021;-94
2021/12/09 23:28:46;;;;;;;151.55;45.90;;;6.30;99.90;;;;;;5073232;28;20032;-93
2021/12/09 23:31:15;;;;;;;156.43;48.08;;;6.40;99.90;;;;;;5073393;28;20029;-93
2021/12/09 23:33:41;;;;;;;129.02;43.80;;;6.40;99.90;;;;;;5073194;28;20035;-93
2021/12/09 23:36:10;;;;;;;125.80;42.10;;;6.40;99.90;;;;;;5073127;28;20078;-93
2021/12/09 23:38:36;;;;;;;122.18;43.08;;;6.40;99.90;;;;;;5073100;28;20131;-93
2021/12/09 23:41:02;;;;;;;126.90;44.42;;;6.30;99.90;;;;;;5073138;28;20024;-93
2021/12/09 23:43:29;;;;;;;122.47;44.25;;;6.40;99.90;;;;;;5072966;28;20094;-93
2021/12/09 23:45:57;;;;;;;162.75;50.25;;;6.40;99.90;;;;;;5073009;28;20035;-93
2021/12/09 23:48:26;;;;;;;176.52;51.05;;;6.40;99.90;;;;;;5073142;28;20024;-93
2021/12/09 23:50:53;;;;;;;166.18;49.80;;;6.50;99.90;;;;;;5072975;28;20024;-93
2021/12/09 23:53:19;;;;;;;149.25;50.75;;;6.50;99.90;;;;;;5074590;28;20112;-92
2021/12/09 23:55:46;;;;;;;138.65;49.95;;;6.40;99.90;;;;;;5077022;28;20394;-93
2021/12/09 23:58:12;;;;;;;181.70;55.50;;;6.40;99.90;;;;;;5076639;28;20036;-93
